createdAt,value
2023-02-12T00:00:08.111Z,10.31
2023-02-12T00:02:42.180Z,9.65
2023-02-12T00:05:09.673Z,10.04
2023-02-12T00:07:36.821Z,9.80
2023-02-12T00:10:04.045Z,10.34
2023-02-12T00:12:31.469Z,10.65
2023-02-12T00:14:58.637Z,10.10
2023-02-12T00:17:25.823Z,10.01
2023-02-12T00:19:53.248Z,9.89
2023-02-12T00:22:20.396Z,9.66
2023-02-12T00:24:47.614Z,9.64
2023-02-12T00:27:15.038Z,9.62
2023-02-12T00:29:42.186Z,9.04
2023-02-12T00:32:09.411Z,8.60
2023-02-12T00:34:36.856Z,8.90
2023-02-12T00:37:04.041Z,9.04
2023-02-12T00:39:31.381Z,8.94
2023-02-12T00:41:58.792Z,9.06
2023-02-12T00:44:25.958Z,9.75
2023-02-12T00:46:53.170Z,9.74
2023-02-12T00:49:20.562Z,9.26
2023-02-12T00:51:50.172Z,9.58
2023-02-12T00:54:18.295Z,9.66
2023-02-12T00:56:45.752Z,8.44
2023-02-12T00:59:12.918Z,8.57
2023-02-12T01:01:40.138Z,9.17
2023-02-12T01:04:07.602Z,8.40
2023-02-12T01:06:34.736Z,7.98
2023-02-12T01:09:02.092Z,8.12
2023-02-12T01:11:29.499Z,8.01
2023-02-12T01:13:56.662Z,8.30
2023-02-12T01:16:24.694Z,8.22
2023-02-12T01:18:55.495Z,7.98
2023-02-12T01:21:24.069Z,8.42
2023-02-12T01:23:51.556Z,8.41
2023-02-12T01:26:19.704Z,7.63
2023-02-12T01:28:51.326Z,7.55
2023-02-12T01:31:19.747Z,7.39
2023-02-12T01:33:50.585Z,7.74
2023-02-12T01:36:17.877Z,7.59
2023-02-12T01:38:47.117Z,7.73
2023-02-12T01:41:21.428Z,7.70
2023-02-12T01:44:08.065Z,7.29
2023-02-12T01:46:35.328Z,6.82
2023-02-12T01:49:03.908Z,6.66
2023-02-12T01:51:31.924Z,7.06
2023-02-12T01:53:59.566Z,7.01
2023-02-12T01:56:27.200Z,7.03
2023-02-12T01:58:55.647Z,7.17
2023-02-12T02:01:24.888Z,7.11
2023-02-12T02:03:54.107Z,7.38
2023-02-12T02:06:23.028Z,6.97
2023-02-12T02:08:50.211Z,6.92
2023-02-12T02:11:36.324Z,6.40
2023-02-12T02:14:23.012Z,6.33
2023-02-12T02:16:53.841Z,6.38
2023-02-12T02:19:20.966Z,6.04
2023-02-12T02:22:06.825Z,6.47
2023-02-12T02:24:37.365Z,6.61
2023-02-12T02:27:10.651Z,6.48
2023-02-12T02:29:44.385Z,6.61
2023-02-12T02:32:17.105Z,6.37
2023-02-12T02:34:56.895Z,6.58
2023-02-12T02:37:28.030Z,6.57
2023-02-12T02:39:56.240Z,6.94
2023-02-12T02:42:23.348Z,6.72
2023-02-12T02:44:54.783Z,6.58
2023-02-12T02:47:24.416Z,6.49
2023-02-12T02:49:59.089Z,7.23
2023-02-12T02:52:28.996Z,7.26
2023-02-12T02:54:56.738Z,7.38
2023-02-12T02:57:25.405Z,7.50
2023-02-12T02:59:54.856Z,7.51
2023-02-12T03:02:23.744Z,8.42
2023-02-12T03:04:52.379Z,9.07
2023-02-12T03:07:27.517Z,8.91
2023-02-12T03:09:57.355Z,8.81
2023-02-12T03:12:29.117Z,9.57
2023-02-12T03:15:14.949Z,9.35
2023-02-12T03:17:43.400Z,9.52
2023-02-12T03:20:24.571Z,9.93
2023-02-12T03:23:01.738Z,9.95
2023-02-12T03:25:31.186Z,9.51
2023-02-12T03:28:04.200Z,9.98
2023-02-12T03:30:35.293Z,9.76
2023-02-12T03:33:10.299Z,9.04
2023-02-12T03:35:57.625Z,9.21
2023-02-12T03:38:28.854Z,7.42
2023-02-12T03:40:56.839Z,9.29
2023-02-12T03:43:25.702Z,8.52
2023-02-12T03:45:56.309Z,9.26
2023-02-12T03:48:23.647Z,8.94
2023-02-12T03:50:56.624Z,8.72
2023-02-12T03:53:25.033Z,9.30
2023-02-12T03:55:55.223Z,7.97
2023-02-12T03:58:23.682Z,9.18
2023-02-12T04:00:51.188Z,9.69
2023-02-12T04:03:18.682Z,9.48
2023-02-12T04:05:45.839Z,9.23
2023-02-12T04:08:13.070Z,9.43
2023-02-12T04:10:43.696Z,9.37
2023-02-12T04:13:19.344Z,9.55
2023-02-12T04:16:04.215Z,9.74
2023-02-12T04:18:41.507Z,9.45
2023-02-12T04:21:11.940Z,9.56
2023-02-12T04:23:39.000Z,9.58
2023-02-12T04:26:11.525Z,9.70
2023-02-12T04:28:42.067Z,9.79
2023-02-12T04:31:12.276Z,9.75
2023-02-12T04:33:45.210Z,9.74
2023-02-12T04:36:13.849Z,9.71
2023-02-12T04:38:42.211Z,9.32
2023-02-12T04:41:09.500Z,9.58
2023-02-12T04:43:37.244Z,9.91
2023-02-12T04:46:05.753Z,9.64
2023-02-12T04:48:34.592Z,9.89
2023-02-12T04:51:01.831Z,9.84
2023-02-12T04:53:29.274Z,10.03
2023-02-12T04:55:56.853Z,9.71
2023-02-12T04:58:24.259Z,9.81
2023-02-12T05:00:51.687Z,10.14
2023-02-12T05:03:18.855Z,9.91
2023-02-12T05:05:46.000Z,10.02
2023-02-12T05:08:13.371Z,9.85
2023-02-12T05:10:40.538Z,9.49
2023-02-12T05:13:07.704Z,9.80
2023-02-12T05:15:35.174Z,9.76
2023-02-12T05:18:02.341Z,9.62
2023-02-12T05:20:29.465Z,9.70
2023-02-12T05:22:56.840Z,9.55
2023-02-12T05:25:24.025Z,9.79
2023-02-12T05:27:51.150Z,9.92
2023-02-12T05:30:18.651Z,9.80
2023-02-12T05:32:45.885Z,10.11
2023-02-12T05:35:13.014Z,9.99
2023-02-12T05:37:40.415Z,9.61
2023-02-12T05:40:08.878Z,9.35
2023-02-12T05:42:36.048Z,9.18
2023-02-12T05:45:03.513Z,9.30
2023-02-12T05:47:30.745Z,9.03
2023-02-12T05:49:57.928Z,9.15
2023-02-12T05:52:25.362Z,9.27
2023-02-12T05:54:52.573Z,8.96
2023-02-12T05:57:19.747Z,9.03
2023-02-12T05:59:47.161Z,8.74
2023-02-12T06:02:14.355Z,8.61
2023-02-12T06:04:41.900Z,8.68
2023-02-12T06:07:09.020Z,8.77
2023-02-12T06:09:36.358Z,8.79
2023-02-12T06:12:03.904Z,8.87
2023-02-12T06:14:32.081Z,8.92
2023-02-12T06:16:59.425Z,8.80
2023-02-12T06:19:26.867Z,8.34
2023-02-12T06:21:53.995Z,8.52
2023-02-12T06:24:21.159Z,8.80
2023-02-12T06:26:49.561Z,9.02
2023-02-12T06:29:16.776Z,9.26
2023-02-12T06:31:44.122Z,8.68
2023-02-12T06:34:12.505Z,9.06
2023-02-12T06:36:40.550Z,9.27
2023-02-12T06:39:07.788Z,9.21
2023-02-12T06:41:35.220Z,9.28
2023-02-12T06:44:02.393Z,9.24
2023-02-12T06:46:29.806Z,9.25
2023-02-12T06:48:58.534Z,9.09
2023-02-12T06:51:26.147Z,9.19
2023-02-12T06:53:53.688Z,9.72
2023-02-12T06:56:21.770Z,8.60
2023-02-12T06:58:55.802Z,9.48
2023-02-12T07:01:24.738Z,9.51
2023-02-12T07:03:53.054Z,9.34
2023-02-12T07:06:20.590Z,9.41
2023-02-12T07:08:48.140Z,9.34
2023-02-12T07:11:15.565Z,9.37
2023-02-12T07:13:43.109Z,9.38
2023-02-12T07:16:15.023Z,9.96
2023-02-12T07:18:42.383Z,9.74
2023-02-12T07:21:09.793Z,10.56
2023-02-12T07:23:37.424Z,11.40
2023-02-12T07:26:13.794Z,11.29
2023-02-12T07:28:41.647Z,10.78
2023-02-12T07:31:13.207Z,11.17
2023-02-12T07:33:41.130Z,11.58
2023-02-12T07:36:09.746Z,11.08
2023-02-12T07:38:39.819Z,11.56
2023-02-12T07:41:27.640Z,12.04
2023-02-12T07:43:56.713Z,12.16
2023-02-12T07:46:29.641Z,12.34
2023-02-12T07:48:57.591Z,12.61
2023-02-12T07:51:26.245Z,13.46
2023-02-12T07:53:53.541Z,13.93
2023-02-12T07:56:21.784Z,15.57
2023-02-12T07:58:50.683Z,15.58
2023-02-12T08:01:18.095Z,15.54
2023-02-12T08:03:45.805Z,14.69
2023-02-12T08:06:23.117Z,14.94
2023-02-12T08:08:51.273Z,15.14
2023-02-12T08:11:18.826Z,14.62
2023-02-12T08:13:46.009Z,14.63
2023-02-12T08:16:14.529Z,14.56
2023-02-12T08:18:41.728Z,14.16
2023-02-12T08:21:10.003Z,13.34
2023-02-12T08:23:37.447Z,13.93
2023-02-12T08:26:15.023Z,14.52
2023-02-12T08:28:46.608Z,14.96
2023-02-12T08:31:14.970Z,15.22
2023-02-12T08:33:42.443Z,16.36
2023-02-12T08:36:14.610Z,16.17
2023-02-12T08:38:42.271Z,17.08
2023-02-12T08:41:10.486Z,17.02
2023-02-12T08:43:37.845Z,15.99
2023-02-12T08:46:06.216Z,16.36
2023-02-12T08:48:33.668Z,14.83
2023-02-12T08:51:19.573Z,14.89
2023-02-12T08:53:47.501Z,14.88
2023-02-12T08:56:15.841Z,14.98
2023-02-12T08:58:43.012Z,14.97
2023-02-12T09:01:11.277Z,14.68
2023-02-12T09:03:38.731Z,14.62
2023-02-12T09:06:06.555Z,14.79
2023-02-12T09:08:33.962Z,15.33
2023-02-12T09:11:04.167Z,15.04
2023-02-12T09:13:31.358Z,15.03
2023-02-12T09:16:00.226Z,14.76
2023-02-12T09:18:27.408Z,14.64
2023-02-12T09:20:54.627Z,15.20
2023-02-12T09:23:22.035Z,15.54
2023-02-12T09:25:49.166Z,16.50
2023-02-12T09:28:16.429Z,18.19
2023-02-12T09:30:43.992Z,18.12
2023-02-12T09:33:11.871Z,18.16
2023-02-12T09:35:39.432Z,18.39
2023-02-12T09:38:07.047Z,20.44
2023-02-12T09:40:53.017Z,21.11
2023-02-12T09:43:26.202Z,22.69
2023-02-12T09:45:56.251Z,23.30
2023-02-12T09:48:28.717Z,23.05
2023-02-12T09:50:56.919Z,21.98
2023-02-12T09:53:25.422Z,21.46
2023-02-12T09:55:52.559Z,21.99
2023-02-12T09:58:29.176Z,21.28
2023-02-12T10:00:56.646Z,20.38
2023-02-12T10:03:24.123Z,20.39
2023-02-12T10:05:52.127Z,21.17
2023-02-12T10:08:42.558Z,20.70
2023-02-12T10:11:10.084Z,20.74
2023-02-12T10:13:55.853Z,20.68
2023-02-12T10:16:23.329Z,20.52
2023-02-12T10:18:53.707Z,20.14
2023-02-12T10:21:39.557Z,19.40
2023-02-12T10:24:07.113Z,18.96
2023-02-12T10:26:44.705Z,18.78
2023-02-12T10:29:29.388Z,18.30
2023-02-12T10:31:59.702Z,18.73
2023-02-12T10:34:30.734Z,18.62
2023-02-12T10:37:09.783Z,18.15
2023-02-12T10:39:38.137Z,17.92
2023-02-12T10:42:43.953Z,18.34
2023-02-12T10:45:13.581Z,18.83
2023-02-12T10:47:40.855Z,18.46
2023-02-12T10:50:20.610Z,18.23
2023-02-12T10:52:53.269Z,17.62
2023-02-12T10:55:26.352Z,17.36
2023-02-12T10:57:54.073Z,17.47
2023-02-12T11:00:24.764Z,17.01
2023-02-12T11:03:04.616Z,17.16
2023-02-12T11:05:34.883Z,17.06
2023-02-12T11:08:03.508Z,17.23
2023-02-12T11:10:34.744Z,16.58
2023-02-12T11:13:02.344Z,16.48
2023-02-12T11:15:46.655Z,16.16
2023-02-12T11:18:22.161Z,16.66
2023-02-12T11:21:08.433Z,16.16
2023-02-12T11:23:37.789Z,16.50
2023-02-12T11:26:06.459Z,16.35
2023-02-12T11:28:36.007Z,15.67
2023-02-12T11:31:23.947Z,15.81
2023-02-12T11:34:06.240Z,16.01
2023-02-12T11:36:35.053Z,15.78
2023-02-12T11:39:02.324Z,15.72
2023-02-12T11:41:36.460Z,15.94
2023-02-12T11:44:11.834Z,15.75
2023-02-12T11:46:39.257Z,15.50
2023-02-12T11:49:06.713Z,15.61
2023-02-12T11:51:34.082Z,15.94
2023-02-12T11:54:02.223Z,16.21
2023-02-12T11:56:45.416Z,16.25
2023-02-12T11:59:16.826Z,15.47
2023-02-12T12:01:44.437Z,15.38
2023-02-12T12:04:13.268Z,14.42
2023-02-12T12:06:41.496Z,14.95
2023-02-12T12:09:11.725Z,14.85
2023-02-12T12:11:59.434Z,14.39
2023-02-12T12:14:27.797Z,14.56
2023-02-12T12:17:23.709Z,14.64
2023-02-12T12:20:10.375Z,14.79
2023-02-12T12:22:41.070Z,15.02
2023-02-12T12:25:14.366Z,15.14
2023-02-12T12:28:03.392Z,15.55
2023-02-12T12:30:51.419Z,15.03
2023-02-12T12:33:38.091Z,15.32
2023-02-12T12:36:14.460Z,14.79
2023-02-12T12:38:51.100Z,15.02
2023-02-12T12:41:22.416Z,15.26
2023-02-12T12:44:02.050Z,15.36
2023-02-12T12:46:35.561Z,14.95
2023-02-12T12:49:03.014Z,15.10
2023-02-12T12:51:30.300Z,14.71
2023-02-12T12:54:03.613Z,15.17
2023-02-12T12:56:37.815Z,15.46
2023-02-12T12:59:23.929Z,14.80
2023-02-12T13:02:03.980Z,14.98
2023-02-12T13:04:37.793Z,15.37
2023-02-12T13:07:11.521Z,15.54
2023-02-12T13:09:43.429Z,14.12
2023-02-12T13:12:23.258Z,14.13
2023-02-12T13:14:56.095Z,14.87
2023-02-12T13:17:26.150Z,15.36
2023-02-12T13:19:55.897Z,15.63
2023-02-12T13:22:29.012Z,15.43
2023-02-12T13:24:56.634Z,15.60
2023-02-12T13:27:27.826Z,15.65
2023-02-12T13:29:57.942Z,15.61
2023-02-12T13:32:54.625Z,15.78
2023-02-12T13:35:23.027Z,15.79
2023-02-12T13:37:51.967Z,15.72
2023-02-12T13:40:20.420Z,14.20
2023-02-12T13:43:06.327Z,13.90
2023-02-12T13:45:33.697Z,13.27
2023-02-12T13:48:12.986Z,13.55
2023-02-12T13:50:50.077Z,13.72
2023-02-12T13:53:26.167Z,14.39
2023-02-12T13:55:56.913Z,13.92
2023-02-12T13:58:40.194Z,13.96
2023-02-12T14:01:14.782Z,14.68
2023-02-12T14:03:42.279Z,14.46
2023-02-12T14:06:20.444Z,14.07
2023-02-12T14:08:49.872Z,13.54
2023-02-12T14:11:18.570Z,13.22
2023-02-12T14:13:47.333Z,13.71
2023-02-12T14:16:19.565Z,13.99
2023-02-12T14:18:46.961Z,14.34
2023-02-12T14:21:17.022Z,14.39
2023-02-12T14:23:45.918Z,14.22
2023-02-12T14:26:19.585Z,14.31
2023-02-12T14:28:48.912Z,14.37
2023-02-12T14:31:21.333Z,14.57
2023-02-12T14:33:49.712Z,14.25
2023-02-12T14:36:32.601Z,13.47
2023-02-12T14:39:01.840Z,13.46
2023-02-12T14:41:41.727Z,13.39
2023-02-12T14:44:23.284Z,14.30
2023-02-12T14:46:51.735Z,14.49
2023-02-12T14:49:19.318Z,14.13
2023-02-12T14:52:05.560Z,14.54
2023-02-12T14:54:37.214Z,14.05
2023-02-12T14:57:09.274Z,13.18
2023-02-12T14:59:40.564Z,13.99
2023-02-12T15:02:08.390Z,14.24
2023-02-12T15:04:39.750Z,14.52
2023-02-12T15:07:08.640Z,13.97
2023-02-12T15:09:36.979Z,13.78
2023-02-12T15:12:26.587Z,14.47
2023-02-12T15:15:20.467Z,14.65
2023-02-12T15:17:58.420Z,14.39
2023-02-12T15:20:46.279Z,14.32
2023-02-12T15:23:33.353Z,14.21
2023-02-12T15:26:01.035Z,13.63
2023-02-12T15:28:33.513Z,14.23
2023-02-12T15:31:02.106Z,13.66
2023-02-12T15:33:33.450Z,14.19
2023-02-12T15:36:01.401Z,13.97
2023-02-12T15:38:33.664Z,14.04
2023-02-12T15:41:01.897Z,14.28
2023-02-12T15:43:32.080Z,14.06
2023-02-12T15:45:59.496Z,13.95
2023-02-12T15:48:32.447Z,14.15
2023-02-12T15:51:15.241Z,13.95
2023-02-12T15:53:42.995Z,14.36
2023-02-12T15:56:12.260Z,14.42
2023-02-12T15:58:42.426Z,14.18
2023-02-12T16:01:14.159Z,14.07
2023-02-12T16:03:41.744Z,14.43
2023-02-12T16:06:16.908Z,14.32
2023-02-12T16:08:45.743Z,14.44
2023-02-12T16:11:16.149Z,13.93
2023-02-12T16:13:46.810Z,13.33
2023-02-12T16:16:14.470Z,13.61
2023-02-12T16:18:42.139Z,13.94
2023-02-12T16:21:12.429Z,13.57
2023-02-12T16:23:42.552Z,13.67
2023-02-12T16:26:12.983Z,13.71
2023-02-12T16:28:40.616Z,13.74
2023-02-12T16:31:09.072Z,13.81
2023-02-12T16:33:48.626Z,13.72
2023-02-12T16:36:16.309Z,13.43
2023-02-12T16:38:44.787Z,12.98
2023-02-12T16:41:25.321Z,12.63
2023-02-12T16:44:01.968Z,13.11
2023-02-12T16:46:32.906Z,13.27
2023-02-12T16:49:00.875Z,13.28
2023-02-12T16:51:29.542Z,13.30
2023-02-12T16:53:57.771Z,13.21
2023-02-12T16:56:27.322Z,13.12
2023-02-12T16:58:57.173Z,13.12
2023-02-12T17:01:28.946Z,12.56
2023-02-12T17:03:57.756Z,12.88
2023-02-12T17:06:26.464Z,12.60
2023-02-12T17:08:53.935Z,12.78
2023-02-12T17:11:23.153Z,12.66
2023-02-12T17:13:51.663Z,12.37
2023-02-12T17:16:30.218Z,12.48
2023-02-12T17:18:59.119Z,12.36
2023-02-12T17:21:55.705Z,12.34
2023-02-12T17:24:24.601Z,11.60
2023-02-12T17:26:52.424Z,11.92
2023-02-12T17:29:20.507Z,10.44
2023-02-12T17:31:48.467Z,10.69
2023-02-12T17:34:16.573Z,11.25
2023-02-12T17:36:44.060Z,11.51
2023-02-12T17:39:12.904Z,11.35
2023-02-12T17:41:40.872Z,11.37
2023-02-12T17:44:08.386Z,11.56
2023-02-12T17:46:36.026Z,11.50
2023-02-12T17:49:03.993Z,11.23
2023-02-12T17:51:31.448Z,11.21
2023-02-12T17:53:59.224Z,11.03
2023-02-12T17:56:26.720Z,11.04
2023-02-12T17:58:54.357Z,10.99
2023-02-12T18:01:22.517Z,10.94
2023-02-12T18:03:53.769Z,11.19
2023-02-12T18:06:25.771Z,10.79
2023-02-12T18:08:53.557Z,10.71
2023-02-12T18:11:20.812Z,10.56
2023-02-12T18:13:48.276Z,10.46
2023-02-12T18:16:16.410Z,10.62
2023-02-12T18:18:43.884Z,10.73
2023-02-12T18:21:12.293Z,10.89
2023-02-12T18:23:40.103Z,10.71
2023-02-12T18:26:08.759Z,10.88
2023-02-12T18:28:36.391Z,10.94
2023-02-12T18:31:04.723Z,10.99
2023-02-12T18:33:33.109Z,10.93
2023-02-12T18:36:05.649Z,10.86
2023-02-12T18:38:35.227Z,10.58
2023-02-12T18:41:09.681Z,10.55
2023-02-12T18:43:37.378Z,10.54
2023-02-12T18:46:08.388Z,10.66
2023-02-12T18:48:37.106Z,10.82
2023-02-12T18:51:05.470Z,10.45
2023-02-12T18:53:32.943Z,10.78
2023-02-12T18:56:03.459Z,10.90
2023-02-12T18:58:31.228Z,10.93
2023-02-12T19:00:59.002Z,11.00
2023-02-12T19:03:26.864Z,10.95
2023-02-12T19:05:54.527Z,10.57
2023-02-12T19:08:21.990Z,10.55
2023-02-12T19:10:49.589Z,10.64
2023-02-12T19:13:17.334Z,10.70
2023-02-12T19:15:44.805Z,10.84
2023-02-12T19:18:12.635Z,10.88
2023-02-12T19:20:40.496Z,10.96
2023-02-12T19:23:08.071Z,11.02
2023-02-12T19:25:39.694Z,11.04
2023-02-12T19:28:07.323Z,10.92
2023-02-12T19:30:36.142Z,10.96
2023-02-12T19:33:03.793Z,10.93
2023-02-12T19:35:31.563Z,10.58
2023-02-12T19:37:59.013Z,10.75
2023-02-12T19:40:26.340Z,10.72
2023-02-12T19:42:54.202Z,10.66
2023-02-12T19:45:21.646Z,10.55
2023-02-12T19:47:50.749Z,10.61
2023-02-12T19:50:18.873Z,10.55
2023-02-12T19:52:46.396Z,10.36
2023-02-12T19:55:13.757Z,10.33
2023-02-12T19:57:41.377Z,10.36
2023-02-12T20:00:08.988Z,10.27
2023-02-12T20:02:36.716Z,10.25
2023-02-12T20:05:04.249Z,10.14
2023-02-12T20:07:31.736Z,10.03
2023-02-12T20:09:59.339Z,9.65
2023-02-12T20:12:26.525Z,9.78
2023-02-12T20:14:54.589Z,9.68
2023-02-12T20:17:22.601Z,9.64
2023-02-12T20:19:49.980Z,9.53
2023-02-12T20:22:17.394Z,9.59
2023-02-12T20:24:45.018Z,9.61
2023-02-12T20:27:12.959Z,9.52
2023-02-12T20:29:40.556Z,9.50
2023-02-12T20:32:08.599Z,9.10
2023-02-12T20:34:49.979Z,8.81
2023-02-12T20:37:18.869Z,8.66
2023-02-12T20:39:46.284Z,8.73
2023-02-12T20:42:13.798Z,8.81
2023-02-12T20:44:41.487Z,8.67
2023-02-12T20:47:08.676Z,8.45
2023-02-12T20:49:35.882Z,8.53
2023-02-12T20:52:03.645Z,8.61
2023-02-12T20:54:31.044Z,8.96
2023-02-12T20:56:59.512Z,8.66
2023-02-12T20:59:27.231Z,8.40
2023-02-12T21:01:54.746Z,8.78
2023-02-12T21:04:22.179Z,8.95
2023-02-12T21:06:49.942Z,8.95
2023-02-12T21:09:17.550Z,8.91
2023-02-12T21:11:45.860Z,8.72
2023-02-12T21:14:23.488Z,8.67
2023-02-12T21:16:55.019Z,8.51
2023-02-12T21:19:22.966Z,8.58
2023-02-12T21:21:50.392Z,8.53
2023-02-12T21:24:18.844Z,8.22
2023-02-12T21:26:46.485Z,8.11
2023-02-12T21:29:14.023Z,8.12
2023-02-12T21:31:42.321Z,7.82
2023-02-12T21:34:11.542Z,7.99
2023-02-12T21:36:39.344Z,8.06
2023-02-12T21:39:07.112Z,8.11
2023-02-12T21:41:35.792Z,8.09
2023-02-12T21:44:04.170Z,7.97
2023-02-12T21:46:31.304Z,7.95
2023-02-12T21:48:58.779Z,7.43
2023-02-12T21:51:26.886Z,7.83
2023-02-12T21:53:56.371Z,7.80
2023-02-12T21:56:24.046Z,8.02
2023-02-12T21:58:51.508Z,8.20
2023-02-12T22:01:19.776Z,8.39
2023-02-12T22:03:47.298Z,8.42
2023-02-12T22:06:14.807Z,8.43
2023-02-12T22:08:41.931Z,8.23
2023-02-12T22:11:10.385Z,8.35
2023-02-12T22:13:37.678Z,7.59
2023-02-12T22:16:11.321Z,7.79
2023-02-12T22:18:38.993Z,8.19
2023-02-12T22:21:07.294Z,8.00
2023-02-12T22:23:34.755Z,7.22
2023-02-12T22:26:06.323Z,7.10
2023-02-12T22:28:33.789Z,7.38
2023-02-12T22:31:05.042Z,6.36
2023-02-12T22:33:32.468Z,7.07
2023-02-12T22:36:05.192Z,6.53
2023-02-12T22:38:36.310Z,6.21
2023-02-12T22:41:03.719Z,7.34
2023-02-12T22:43:31.947Z,7.52
2023-02-12T22:45:59.614Z,6.86
2023-02-12T22:48:28.211Z,6.93
2023-02-12T22:50:55.910Z,7.18
2023-02-12T22:53:23.967Z,6.22
2023-02-12T22:55:51.273Z,5.81
2023-02-12T22:58:18.791Z,5.36
2023-02-12T23:00:46.252Z,5.81
2023-02-12T23:03:13.446Z,6.02
2023-02-12T23:05:40.658Z,6.47
2023-02-12T23:08:08.058Z,6.39
2023-02-12T23:10:35.222Z,5.82
2023-02-12T23:13:02.906Z,6.63
2023-02-12T23:15:30.931Z,7.08
2023-02-12T23:17:58.084Z,6.33
2023-02-12T23:20:25.257Z,5.87
2023-02-12T23:22:52.709Z,5.95
2023-02-12T23:25:19.891Z,5.58
2023-02-12T23:27:47.100Z,6.34
2023-02-12T23:30:14.715Z,5.50
2023-02-12T23:32:41.941Z,5.68
2023-02-12T23:35:09.130Z,5.45
2023-02-12T23:37:36.560Z,5.94
2023-02-12T23:40:03.785Z,5.47
2023-02-12T23:42:30.926Z,6.08
2023-02-12T23:44:58.352Z,5.68
2023-02-12T23:47:25.462Z,5.51
2023-02-12T23:49:52.666Z,5.70
2023-02-12T23:52:20.092Z,5.91
2023-02-12T23:54:47.219Z,5.77
2023-02-12T23:57:14.468Z,5.95
2023-02-12T23:59:41.874Z,5.86
